sensor_id;sensor_type;location;lat;lon;timestamp;pressure;altitude;pressure_sealevel;temperature;humidity
61484;BME280;47349;55.640;37.692;2022-11-20T07:48:36;99573.88;;;-1.97;88.88
61484;BME280;47349;55.640;37.692;2022-11-20T07:51:18;99564.34;;;-2.13;88.07
61484;BME280;47349;55.640;37.692;2022-11-20T07:54:02;99569.53;;;-1.98;87.85
61484;BME280;47349;55.640;37.692;2022-11-20T07:56:39;99591.97;;;-1.80;87.90
61484;BME280;47349;55.640;37.692;2022-11-20T07:59:39;99582.72;;;-1.86;87.75
61484;BME280;47349;55.640;37.692;2022-11-20T13:01:40;99794.09;;;-2.05;83.61
61484;BME280;47349;55.640;37.692;2022-11-20T13:04:58;99773.25;;;-2.23;85.20
61484;BME280;47349;55.640;37.692;2022-11-20T13:07:53;99802.69;;;-2.18;84.51
61484;BME280;47349;55.640;37.692;2022-11-20T13:10:45;99803.75;;;-2.06;85.89
61484;BME280;47349;55.640;37.692;2022-11-20T13:19:25;99778.69;;;-2.26;86.05
61484;BME280;47349;55.640;37.692;2022-11-20T13:21:53;99759.94;;;-2.34;86.07
61484;BME280;47349;55.640;37.692;2022-11-20T13:29:32;99792.34;;;-2.49;86.02
61484;BME280;47349;55.640;37.692;2022-11-20T13:32:12;99805.22;;;-2.30;86.37
61484;BME280;47349;55.640;37.692;2022-11-20T13:35:00;99803.91;;;-2.23;85.78
61484;BME280;47349;55.640;37.692;2022-11-20T13:37:35;99802.69;;;-2.18;85.37
61484;BME280;47349;55.640;37.692;2022-11-20T13:40:13;99820.63;;;-2.10;85.85
61484;BME280;47349;55.640;37.692;2022-11-20T13:43:01;99795.75;;;-2.19;85.51
61484;BME280;47349;55.640;37.692;2022-11-20T13:45:32;99793.91;;;-2.17;85.46
61484;BME280;47349;55.640;37.692;2022-11-20T13:51:40;99781.31;;;-2.40;85.11
61484;BME280;47349;55.640;37.692;2022-11-20T13:54:39;99822.31;;;-2.09;84.12
61484;BME280;47349;55.640;37.692;2022-11-20T13:57:50;99826.72;;;-2.10;83.91
61484;BME280;47349;55.640;37.692;2022-11-20T14:00:55;99815.44;;;-2.26;84.11
61484;BME280;47349;55.640;37.692;2022-11-20T14:03:40;99794.44;;;-2.40;83.93
61484;BME280;47349;55.640;37.692;2022-11-20T14:06:48;99806.81;;;-2.28;83.91
61484;BME280;47349;55.640;37.692;2022-11-20T14:09:33;99820.53;;;-2.09;83.74
61484;BME280;47349;55.640;37.692;2022-11-20T14:12:36;99833.84;;;-2.12;83.65
61484;BME280;47349;55.640;37.692;2022-11-20T14:15:35;99842.75;;;-2.00;82.71
61484;BME280;47349;55.640;37.692;2022-11-20T14:18:28;99828.03;;;-2.17;81.82
61484;BME280;47349;55.640;37.692;2022-11-20T14:21:46;99825.78;;;-2.09;82.36
61484;BME280;47349;55.640;37.692;2022-11-20T14:24:36;99834.56;;;-2.24;82.18
61484;BME280;47349;55.640;37.692;2022-11-20T14:27:23;99852.00;;;-2.23;82.82
61484;BME280;47349;55.640;37.692;2022-11-20T14:30:47;99819.91;;;-2.42;82.42
61484;BME280;47349;55.640;37.692;2022-11-20T14:34:43;99839.72;;;-2.37;82.86
61484;BME280;47349;55.640;37.692;2022-11-20T14:38:01;99797.59;;;-2.49;82.04
61484;BME280;47349;55.640;37.692;2022-11-20T14:40:45;99871.34;;;-2.10;82.00
61484;BME280;47349;55.640;37.692;2022-11-20T14:43:53;99835.94;;;-2.33;82.79
61484;BME280;47349;55.640;37.692;2022-11-20T14:46:42;99833.44;;;-2.34;82.35
61484;BME280;47349;55.640;37.692;2022-11-20T14:49:37;99882.44;;;-2.04;82.33
61484;BME280;47349;55.640;37.692;2022-11-20T14:52:25;99855.19;;;-2.18;82.17
61484;BME280;47349;55.640;37.692;2022-11-20T14:55:37;99875.13;;;-1.99;82.73
61484;BME280;47349;55.640;37.692;2022-11-20T14:58:26;99866.88;;;-2.08;82.27
61484;BME280;47349;55.640;37.692;2022-11-20T15:01:27;99835.81;;;-2.15;82.33
61484;BME280;47349;55.640;37.692;2022-11-20T15:04:50;99873.44;;;-2.00;82.04
61484;BME280;47349;55.640;37.692;2022-11-20T15:08:49;99872.97;;;-2.07;82.66
61484;BME280;47349;55.640;37.692;2022-11-20T15:12:16;99863.06;;;-2.32;83.42
61484;BME280;47349;55.640;37.692;2022-11-20T15:15:51;99843.75;;;-2.31;82.71
61484;BME280;47349;55.640;37.692;2022-11-20T15:20:14;99798.06;;;-2.43;82.83
61484;BME280;47349;55.640;37.692;2022-11-20T15:23:26;99843.78;;;-2.17;82.95
61484;BME280;47349;55.640;37.692;2022-11-20T15:27:00;99853.75;;;-1.93;83.19
61484;BME280;47349;55.640;37.692;2022-11-20T15:30:39;99775.22;;;-2.26;81.85
61484;BME280;47349;55.640;37.692;2022-11-20T15:33:25;99818.16;;;-2.27;81.94
61484;BME280;47349;55.640;37.692;2022-11-20T15:36:28;99813.13;;;-2.16;82.56
61484;BME280;47349;55.640;37.692;2022-11-20T15:39:21;99832.16;;;-1.98;82.89
61484;BME280;47349;55.640;37.692;2022-11-20T15:42:35;99859.09;;;-1.81;83.16
61484;BME280;47349;55.640;37.692;2022-11-20T15:46:16;99847.28;;;-1.88;83.04
61484;BME280;47349;55.640;37.692;2022-11-20T15:49:44;99808.44;;;-2.11;82.72
61484;BME280;47349;55.640;37.692;2022-11-20T15:53:05;99823.81;;;-1.91;82.38
61484;BME280;47349;55.640;37.692;2022-11-20T15:56:36;99795.38;;;-1.98;82.49
61484;BME280;47349;55.640;37.692;2022-11-20T16:00:48;99849.44;;;-1.80;82.55
61484;BME280;47349;55.640;37.692;2022-11-20T16:04:00;99802.78;;;-2.19;82.86
61484;BME280;47349;55.640;37.692;2022-11-20T16:07:15;99811.50;;;-2.19;82.95
61484;BME280;47349;55.640;37.692;2022-11-20T16:10:27;99813.19;;;-2.18;82.93
61484;BME280;47349;55.640;37.692;2022-11-20T16:18:01;99811.06;;;-2.11;81.92
61484;BME280;47349;55.640;37.692;2022-11-20T16:21:29;99809.81;;;-2.20;82.50
61484;BME280;47349;55.640;37.692;2022-11-20T16:25:00;99765.56;;;-2.40;83.13
61484;BME280;47349;55.640;37.692;2022-11-20T16:33:37;99815.19;;;-2.07;83.81
61484;BME280;47349;55.640;37.692;2022-11-20T16:37:44;99822.56;;;-2.28;84.42
61484;BME280;47349;55.640;37.692;2022-11-20T20:34:45;99875.66;;;-2.09;87.44
61484;BME280;47349;55.640;37.692;2022-11-20T20:37:29;99899.31;;;-1.94;87.04
61484;BME280;47349;55.640;37.692;2022-11-20T20:40:12;99855.16;;;-2.02;86.89
61484;BME280;47349;55.640;37.692;2022-11-20T20:43:24;99863.41;;;-1.79;86.98
61484;BME280;47349;55.640;37.692;2022-11-20T20:46:26;99845.88;;;-2.08;86.38
61484;BME280;47349;55.640;37.692;2022-11-20T20:49:09;99850.53;;;-2.27;86.48
61484;BME280;47349;55.640;37.692;2022-11-20T20:51:51;99851.09;;;-2.22;87.21
61484;BME280;47349;55.640;37.692;2022-11-20T20:54:33;99835.47;;;-2.39;87.25
61484;BME280;47349;55.640;37.692;2022-11-20T20:57:15;99872.66;;;-2.17;87.44
61484;BME280;47349;55.640;37.692;2022-11-20T21:00:05;99888.44;;;-2.02;87.27
61484;BME280;47349;55.640;37.692;2022-11-20T21:03:25;99851.84;;;-2.20;87.32
61484;BME280;47349;55.640;37.692;2022-11-20T21:07:14;99878.09;;;-2.20;87.37
61484;BME280;47349;55.640;37.692;2022-11-20T21:10:01;99841.19;;;-2.33;86.49
61484;BME280;47349;55.640;37.692;2022-11-20T21:12:43;99858.59;;;-2.16;86.37
61484;BME280;47349;55.640;37.692;2022-11-20T21:15:49;99848.28;;;-2.19;86.36
61484;BME280;47349;55.640;37.692;2022-11-20T21:18:34;99864.25;;;-2.08;84.63
61484;BME280;47349;55.640;37.692;2022-11-20T21:21:16;99843.56;;;-2.28;84.13
61484;BME280;47349;55.640;37.692;2022-11-20T21:24:17;99843.56;;;-2.28;84.73
61484;BME280;47349;55.640;37.692;2022-11-20T21:27:02;99881.66;;;-2.21;85.66
61484;BME280;47349;55.640;37.692;2022-11-20T21:29:44;99901.09;;;-2.09;86.54
61484;BME280;47349;55.640;37.692;2022-11-20T21:32:29;99830.34;;;-2.41;86.86
61484;BME280;47349;55.640;37.692;2022-11-20T21:35:10;99871.47;;;-2.11;86.75
61484;BME280;47349;55.640;37.692;2022-11-20T21:37:52;99842.94;;;-2.17;86.65
61484;BME280;47349;55.640;37.692;2022-11-20T21:40:36;99830.00;;;-2.20;86.45
61484;BME280;47349;55.640;37.692;2022-11-20T21:43:17;99835.50;;;-2.25;86.04
61484;BME280;47349;55.640;37.692;2022-11-20T21:46:04;99866.97;;;-1.95;85.93
61484;BME280;47349;55.640;37.692;2022-11-20T21:48:47;99819.31;;;-2.17;86.53
61484;BME280;47349;55.640;37.692;2022-11-20T21:51:28;99857.31;;;-1.94;86.30
61484;BME280;47349;55.640;37.692;2022-11-20T21:54:11;99827.25;;;-2.19;86.55
61484;BME280;47349;55.640;37.692;2022-11-20T21:56:52;99804.56;;;-2.34;85.02
61484;BME280;47349;55.640;37.692;2022-11-20T21:59:37;99819.59;;;-2.22;84.98
61484;BME280;47349;55.640;37.692;2022-11-20T22:02:19;99840.94;;;-2.28;83.94
61484;BME280;47349;55.640;37.692;2022-11-20T22:05:01;99880.75;;;-2.05;84.17
61484;BME280;47349;55.640;37.692;2022-11-20T22:07:44;99849.19;;;-2.34;83.15
61484;BME280;47349;55.640;37.692;2022-11-20T22:10:26;99850.19;;;-2.51;83.85
61484;BME280;47349;55.640;37.692;2022-11-20T22:13:08;99850.06;;;-2.49;84.09
61484;BME280;47349;55.640;37.692;2022-11-20T22:16:09;99873.56;;;-2.32;84.56
61484;BME280;47349;55.640;37.692;2022-11-20T22:18:52;99849.41;;;-2.53;84.85
61484;BME280;47349;55.640;37.692;2022-11-20T22:21:38;99827.94;;;-2.60;84.80
61484;BME280;47349;55.640;37.692;2022-11-20T22:24:21;99878.53;;;-2.58;84.85
61484;BME280;47349;55.640;37.692;2022-11-20T22:27:08;99862.97;;;-2.61;85.49
61484;BME280;47349;55.640;37.692;2022-11-20T22:29:52;99870.50;;;-2.54;85.53
61484;BME280;47349;55.640;37.692;2022-11-20T22:32:34;99843.69;;;-2.60;86.08
61484;BME280;47349;55.640;37.692;2022-11-20T22:35:21;99835.38;;;-2.68;85.77
61484;BME280;47349;55.640;37.692;2022-11-20T22:38:02;99843.25;;;-2.68;85.42
61484;BME280;47349;55.640;37.692;2022-11-20T22:40:52;99829.03;;;-2.64;85.19
61484;BME280;47349;55.640;37.692;2022-11-20T22:43:36;99840.00;;;-2.57;85.37
61484;BME280;47349;55.640;37.692;2022-11-20T22:46:19;99828.28;;;-2.66;85.18
61484;BME280;47349;55.640;37.692;2022-11-20T22:49:03;99824.91;;;-2.68;85.74
61484;BME280;47349;55.640;37.692;2022-11-20T22:51:46;99815.78;;;-2.76;85.74
61484;BME280;47349;55.640;37.692;2022-11-20T22:54:28;99814.53;;;-2.85;85.95
61484;BME280;47349;55.640;37.692;2022-11-20T22:57:11;99790.94;;;-2.85;86.08
61484;BME280;47349;55.640;37.692;2022-11-20T23:00:18;99855.84;;;-2.59;86.05
61484;BME280;47349;55.640;37.692;2022-11-20T23:03:00;99820.19;;;-2.77;85.93
61484;BME280;47349;55.640;37.692;2022-11-20T23:05:42;99814.81;;;-2.90;86.05
61484;BME280;47349;55.640;37.692;2022-11-20T23:08:29;99843.78;;;-2.61;86.42
61484;BME280;47349;55.640;37.692;2022-11-20T23:11:13;99802.59;;;-2.91;86.37
61484;BME280;47349;55.640;37.692;2022-11-20T23:13:57;99810.56;;;-2.92;86.43
61484;BME280;47349;55.640;37.692;2022-11-20T23:16:43;99817.66;;;-2.78;86.89
61484;BME280;47349;55.640;37.692;2022-11-20T23:19:28;99838.94;;;-2.69;86.96
61484;BME280;47349;55.640;37.692;2022-11-20T23:22:09;99824.91;;;-2.68;86.72
61484;BME280;47349;55.640;37.692;2022-11-20T23:25:12;99823.91;;;-2.65;86.93
61484;BME280;47349;55.640;37.692;2022-11-20T23:27:54;99750.66;;;-3.14;86.50
61484;BME280;47349;55.640;37.692;2022-11-20T23:30:37;99749.72;;;-3.13;87.04
61484;BME280;47349;55.640;37.692;2022-11-20T23:33:21;99790.13;;;-3.01;87.23
61484;BME280;47349;55.640;37.692;2022-11-20T23:36:24;99824.09;;;-2.84;87.18
61484;BME280;47349;55.640;37.692;2022-11-20T23:39:06;99800.75;;;-2.89;87.52
61484;BME280;47349;55.640;37.692;2022-11-20T23:41:51;99812.31;;;-2.77;87.47
61484;BME280;47349;55.640;37.692;2022-11-20T23:44:34;99789.06;;;-2.83;87.18
61484;BME280;47349;55.640;37.692;2022-11-20T23:47:18;99796.94;;;-2.83;86.77
61484;BME280;47349;55.640;37.692;2022-11-20T23:50:04;99819.16;;;-2.74;86.95
61484;BME280;47349;55.640;37.692;2022-11-20T23:52:58;99743.06;;;-3.19;87.70
61484;BME280;47349;55.640;37.692;2022-11-20T23:55:49;99780.97;;;-2.94;87.83
61484;BME280;47349;55.640;37.692;2022-11-20T23:58:35;99767.78;;;-2.93;87.94
